sensor_id;sensor_type;location;lat;lon;timestamp;P1;durP1;ratioP1;P2;durP2;ratioP2
60472;SDS011;46318;52.716;6.444;2022-10-16T00:01:20;6.45;;;3.75;;
60472;SDS011;46318;52.716;6.444;2022-10-16T00:03:49;8.00;;;2.80;;
60472;SDS011;46318;52.716;6.444;2022-10-16T00:06:16;5.65;;;2.75;;
60472;SDS011;46318;52.716;6.444;2022-10-16T00:08:44;6.55;;;2.80;;
60472;SDS011;46318;52.716;6.444;2022-10-16T00:11:11;5.20;;;2.40;;
60472;SDS011;46318;52.716;6.444;2022-10-16T00:13:43;4.63;;;2.85;;
60472;SDS011;46318;52.716;6.444;2022-10-16T00:16:10;5.75;;;2.38;;
60472;SDS011;46318;52.716;6.444;2022-10-16T00:18:37;5.82;;;2.72;;
60472;SDS011;46318;52.716;6.444;2022-10-16T00:21:05;7.00;;;2.60;;
60472;SDS011;46318;52.716;6.444;2022-10-16T00:23:33;4.82;;;2.60;;
60472;SDS011;46318;52.716;6.444;2022-10-16T00:26:01;4.07;;;2.63;;
60472;SDS011;46318;52.716;6.444;2022-10-16T00:28:31;5.35;;;2.45;;
60472;SDS011;46318;52.716;6.444;2022-10-16T00:30:57;7.80;;;2.53;;
60472;SDS011;46318;52.716;6.444;2022-10-16T00:33:23;6.88;;;2.67;;
60472;SDS011;46318;52.716;6.444;2022-10-16T00:35:49;4.75;;;2.65;;
60472;SDS011;46318;52.716;6.444;2022-10-16T00:38:15;5.53;;;2.50;;
60472;SDS011;46318;52.716;6.444;2022-10-16T00:40:41;5.70;;;2.30;;
60472;SDS011;46318;52.716;6.444;2022-10-16T00:43:31;8.05;;;2.60;;
60472;SDS011;46318;52.716;6.444;2022-10-16T00:46:26;5.67;;;2.40;;
60472;SDS011;46318;52.716;6.444;2022-10-16T00:51:42;3.65;;;2.30;;
60472;SDS011;46318;52.716;6.444;2022-10-16T00:54:14;4.45;;;2.22;;
60472;SDS011;46318;52.716;6.444;2022-10-16T00:56:44;4.35;;;2.42;;
60472;SDS011;46318;52.716;6.444;2022-10-16T01:01:50;4.13;;;2.75;;
60472;SDS011;46318;52.716;6.444;2022-10-16T01:04:17;3.67;;;2.72;;
60472;SDS011;46318;52.716;6.444;2022-10-16T01:15:13;8.02;;;2.35;;
60472;SDS011;46318;52.716;6.444;2022-10-16T01:17:53;4.55;;;2.58;;
60472;SDS011;46318;52.716;6.444;2022-10-16T01:20:31;4.15;;;2.20;;
60472;SDS011;46318;52.716;6.444;2022-10-16T01:23:10;5.28;;;2.63;;
60472;SDS011;46318;52.716;6.444;2022-10-16T01:28:57;5.90;;;2.75;;
60472;SDS011;46318;52.716;6.444;2022-10-16T01:31:30;4.05;;;2.67;;
60472;SDS011;46318;52.716;6.444;2022-10-16T01:34:02;5.10;;;2.92;;
60472;SDS011;46318;52.716;6.444;2022-10-16T01:36:35;5.50;;;2.90;;
60472;SDS011;46318;52.716;6.444;2022-10-16T01:39:08;5.95;;;2.80;;
60472;SDS011;46318;52.716;6.444;2022-10-16T01:41:41;6.38;;;3.10;;
60472;SDS011;46318;52.716;6.444;2022-10-16T01:44:14;6.07;;;2.83;;
60472;SDS011;46318;52.716;6.444;2022-10-16T01:46:48;7.25;;;3.03;;
60472;SDS011;46318;52.716;6.444;2022-10-16T01:49:17;6.15;;;3.10;;
60472;SDS011;46318;52.716;6.444;2022-10-16T01:51:44;6.60;;;3.13;;
60472;SDS011;46318;52.716;6.444;2022-10-16T01:54:17;6.55;;;3.30;;
60472;SDS011;46318;52.716;6.444;2022-10-16T01:56:45;5.75;;;3.00;;
60472;SDS011;46318;52.716;6.444;2022-10-16T01:59:15;4.40;;;3.17;;
60472;SDS011;46318;52.716;6.444;2022-10-16T02:04:15;5.53;;;3.35;;
60472;SDS011;46318;52.716;6.444;2022-10-16T02:06:48;5.75;;;3.53;;
60472;SDS011;46318;52.716;6.444;2022-10-16T02:09:14;9.27;;;3.80;;
60472;SDS011;46318;52.716;6.444;2022-10-16T02:11:42;5.00;;;3.00;;
60472;SDS011;46318;52.716;6.444;2022-10-16T02:14:09;7.07;;;3.60;;
60472;SDS011;46318;52.716;6.444;2022-10-16T02:16:41;5.28;;;3.30;;
60472;SDS011;46318;52.716;6.444;2022-10-16T02:19:10;6.85;;;3.35;;
60472;SDS011;46318;52.716;6.444;2022-10-16T02:21:47;5.00;;;3.35;;
60472;SDS011;46318;52.716;6.444;2022-10-16T02:24:27;5.20;;;3.63;;
60472;SDS011;46318;52.716;6.444;2022-10-16T02:27:11;5.50;;;3.45;;
60472;SDS011;46318;52.716;6.444;2022-10-16T02:30:06;6.40;;;2.97;;
60472;SDS011;46318;52.716;6.444;2022-10-16T02:32:44;6.93;;;3.28;;
60472;SDS011;46318;52.716;6.444;2022-10-16T02:35:13;4.80;;;3.30;;
60472;SDS011;46318;52.716;6.444;2022-10-16T02:37:42;3.50;;;3.17;;
60472;SDS011;46318;52.716;6.444;2022-10-16T02:40:09;5.13;;;3.83;;
60472;SDS011;46318;52.716;6.444;2022-10-16T02:42:37;5.22;;;3.25;;
60472;SDS011;46318;52.716;6.444;2022-10-16T02:45:05;3.78;;;3.05;;
60472;SDS011;46318;52.716;6.444;2022-10-16T02:47:32;4.13;;;3.50;;
60472;SDS011;46318;52.716;6.444;2022-10-16T02:49:58;7.57;;;3.45;;
60472;SDS011;46318;52.716;6.444;2022-10-16T02:52:24;5.07;;;3.17;;
60472;SDS011;46318;52.716;6.444;2022-10-16T02:54:50;6.53;;;3.25;;
60472;SDS011;46318;52.716;6.444;2022-10-16T02:57:17;3.70;;;3.00;;
60472;SDS011;46318;52.716;6.444;2022-10-16T02:59:43;5.63;;;2.80;;
60472;SDS011;46318;52.716;6.444;2022-10-16T03:02:09;5.75;;;3.45;;
60472;SDS011;46318;52.716;6.444;2022-10-16T03:04:36;5.20;;;3.00;;
60472;SDS011;46318;52.716;6.444;2022-10-16T03:07:02;5.72;;;3.20;;
60472;SDS011;46318;52.716;6.444;2022-10-16T03:09:28;4.78;;;3.10;;
60472;SDS011;46318;52.716;6.444;2022-10-16T03:11:54;6.00;;;2.65;;
60472;SDS011;46318;52.716;6.444;2022-10-16T03:14:20;5.47;;;3.65;;
60472;SDS011;46318;52.716;6.444;2022-10-16T03:16:46;6.28;;;3.50;;
60472;SDS011;46318;52.716;6.444;2022-10-16T03:19:11;3.92;;;3.30;;
60472;SDS011;46318;52.716;6.444;2022-10-16T03:21:37;5.85;;;3.38;;
60472;SDS011;46318;52.716;6.444;2022-10-16T03:24:03;3.78;;;3.10;;
60472;SDS011;46318;52.716;6.444;2022-10-16T03:26:29;4.65;;;4.00;;
60472;SDS011;46318;52.716;6.444;2022-10-16T03:28:55;4.18;;;3.20;;
60472;SDS011;46318;52.716;6.444;2022-10-16T03:31:20;4.03;;;3.50;;
60472;SDS011;46318;52.716;6.444;2022-10-16T03:33:46;4.00;;;2.92;;
60472;SDS011;46318;52.716;6.444;2022-10-16T03:36:12;5.82;;;3.40;;
60472;SDS011;46318;52.716;6.444;2022-10-16T03:38:38;4.57;;;3.42;;
60472;SDS011;46318;52.716;6.444;2022-10-16T03:41:04;5.05;;;3.38;;
60472;SDS011;46318;52.716;6.444;2022-10-16T03:43:29;5.00;;;3.70;;
60472;SDS011;46318;52.716;6.444;2022-10-16T03:45:55;5.43;;;3.42;;
60472;SDS011;46318;52.716;6.444;2022-10-16T03:48:21;4.00;;;2.97;;
60472;SDS011;46318;52.716;6.444;2022-10-16T03:50:49;5.32;;;3.55;;
60472;SDS011;46318;52.716;6.444;2022-10-16T03:53:16;5.25;;;3.42;;
60472;SDS011;46318;52.716;6.444;2022-10-16T03:55:42;4.60;;;4.18;;
60472;SDS011;46318;52.716;6.444;2022-10-16T03:58:09;6.00;;;4.00;;
60472;SDS011;46318;52.716;6.444;2022-10-16T04:00:36;5.53;;;3.90;;
60472;SDS011;46318;52.716;6.444;2022-10-16T04:03:09;6.07;;;4.20;;
60472;SDS011;46318;52.716;6.444;2022-10-16T04:05:35;4.30;;;3.90;;
60472;SDS011;46318;52.716;6.444;2022-10-16T04:08:01;7.65;;;4.13;;
60472;SDS011;46318;52.716;6.444;2022-10-16T04:10:27;7.43;;;3.90;;
60472;SDS011;46318;52.716;6.444;2022-10-16T04:12:53;5.38;;;4.30;;
60472;SDS011;46318;52.716;6.444;2022-10-16T04:15:21;5.55;;;4.22;;
60472;SDS011;46318;52.716;6.444;2022-10-16T04:17:47;5.63;;;3.92;;
60472;SDS011;46318;52.716;6.444;2022-10-16T04:20:13;5.93;;;3.95;;
60472;SDS011;46318;52.716;6.444;2022-10-16T04:22:39;7.32;;;4.25;;
60472;SDS011;46318;52.716;6.444;2022-10-16T04:25:05;4.35;;;4.00;;
60472;SDS011;46318;52.716;6.444;2022-10-16T04:27:31;6.30;;;3.67;;
60472;SDS011;46318;52.716;6.444;2022-10-16T04:29:57;5.93;;;3.95;;
60472;SDS011;46318;52.716;6.444;2022-10-16T04:32:24;5.80;;;3.97;;
60472;SDS011;46318;52.716;6.444;2022-10-16T04:34:51;5.55;;;4.38;;
60472;SDS011;46318;52.716;6.444;2022-10-16T04:37:16;4.57;;;4.18;;
60472;SDS011;46318;52.716;6.444;2022-10-16T04:39:42;4.82;;;4.25;;
60472;SDS011;46318;52.716;6.444;2022-10-16T04:42:08;5.40;;;4.00;;
60472;SDS011;46318;52.716;6.444;2022-10-16T04:44:34;8.32;;;4.35;;
60472;SDS011;46318;52.716;6.444;2022-10-16T04:47:00;10.98;;;4.35;;
60472;SDS011;46318;52.716;6.444;2022-10-16T04:49:26;4.47;;;3.92;;
60472;SDS011;46318;52.716;6.444;2022-10-16T04:51:51;5.38;;;4.40;;
60472;SDS011;46318;52.716;6.444;2022-10-16T04:54:17;5.38;;;4.72;;
60472;SDS011;46318;52.716;6.444;2022-10-16T04:56:43;4.80;;;4.30;;
60472;SDS011;46318;52.716;6.444;2022-10-16T04:59:12;5.18;;;4.35;;
60472;SDS011;46318;52.716;6.444;2022-10-16T05:01:39;4.68;;;4.25;;
60472;SDS011;46318;52.716;6.444;2022-10-16T05:04:05;6.13;;;4.28;;
60472;SDS011;46318;52.716;6.444;2022-10-16T05:06:31;5.55;;;4.10;;
60472;SDS011;46318;52.716;6.444;2022-10-16T05:08:57;4.82;;;4.40;;
60472;SDS011;46318;52.716;6.444;2022-10-16T05:11:23;5.70;;;4.13;;
60472;SDS011;46318;52.716;6.444;2022-10-16T05:13:49;6.50;;;4.30;;
60472;SDS011;46318;52.716;6.444;2022-10-16T05:16:14;6.78;;;4.13;;
60472;SDS011;46318;52.716;6.444;2022-10-16T05:18:40;4.97;;;4.15;;
60472;SDS011;46318;52.716;6.444;2022-10-16T05:21:06;5.15;;;4.07;;
60472;SDS011;46318;52.716;6.444;2022-10-16T05:23:32;4.43;;;4.03;;
60472;SDS011;46318;52.716;6.444;2022-10-16T05:25:58;6.43;;;4.10;;
60472;SDS011;46318;52.716;6.444;2022-10-16T05:28:25;5.80;;;4.15;;
60472;SDS011;46318;52.716;6.444;2022-10-16T05:30:53;4.50;;;4.00;;
60472;SDS011;46318;52.716;6.444;2022-10-16T05:33:19;5.43;;;4.10;;
60472;SDS011;46318;52.716;6.444;2022-10-16T05:35:47;5.35;;;4.22;;
60472;SDS011;46318;52.716;6.444;2022-10-16T05:38:13;5.30;;;4.25;;
60472;SDS011;46318;52.716;6.444;2022-10-16T05:40:39;5.97;;;4.40;;
60472;SDS011;46318;52.716;6.444;2022-10-16T05:43:04;5.13;;;3.88;;
60472;SDS011;46318;52.716;6.444;2022-10-16T05:45:30;4.18;;;3.78;;
60472;SDS011;46318;52.716;6.444;2022-10-16T05:47:56;5.43;;;3.90;;
60472;SDS011;46318;52.716;6.444;2022-10-16T05:50:21;4.22;;;3.65;;
60472;SDS011;46318;52.716;6.444;2022-10-16T05:52:47;5.10;;;3.38;;
60472;SDS011;46318;52.716;6.444;2022-10-16T05:55:13;5.60;;;3.80;;
60472;SDS011;46318;52.716;6.444;2022-10-16T05:57:39;6.38;;;4.03;;
60472;SDS011;46318;52.716;6.444;2022-10-16T06:00:05;5.82;;;3.58;;
60472;SDS011;46318;52.716;6.444;2022-10-16T06:02:31;3.50;;;3.20;;
60472;SDS011;46318;52.716;6.444;2022-10-16T06:04:57;4.40;;;3.50;;
60472;SDS011;46318;52.716;6.444;2022-10-16T06:07:23;5.40;;;3.50;;
60472;SDS011;46318;52.716;6.444;2022-10-16T06:09:49;4.40;;;4.00;;
60472;SDS011;46318;52.716;6.444;2022-10-16T06:12:16;4.20;;;3.75;;
60472;SDS011;46318;52.716;6.444;2022-10-16T06:14:42;4.30;;;3.30;;
60472;SDS011;46318;52.716;6.444;2022-10-16T06:17:08;4.18;;;3.30;;
60472;SDS011;46318;52.716;6.444;2022-10-16T06:19:33;4.28;;;3.70;;
60472;SDS011;46318;52.716;6.444;2022-10-16T06:21:59;4.50;;;3.40;;
60472;SDS011;46318;52.716;6.444;2022-10-16T06:24:25;4.68;;;3.20;;
60472;SDS011;46318;52.716;6.444;2022-10-16T06:26:51;3.70;;;3.40;;
60472;SDS011;46318;52.716;6.444;2022-10-16T06:29:16;5.32;;;3.53;;
60472;SDS011;46318;52.716;6.444;2022-10-16T06:31:42;3.80;;;3.05;;
60472;SDS011;46318;52.716;6.444;2022-10-16T06:34:09;5.30;;;3.30;;
60472;SDS011;46318;52.716;6.444;2022-10-16T06:36:36;4.28;;;3.30;;
60472;SDS011;46318;52.716;6.444;2022-10-16T06:39:03;3.70;;;3.20;;
60472;SDS011;46318;52.716;6.444;2022-10-16T06:41:30;5.15;;;3.05;;
60472;SDS011;46318;52.716;6.444;2022-10-16T06:43:56;5.32;;;3.42;;
60472;SDS011;46318;52.716;6.444;2022-10-16T06:46:23;5.03;;;3.40;;
60472;SDS011;46318;52.716;6.444;2022-10-16T06:48:50;7.25;;;3.58;;
60472;SDS011;46318;52.716;6.444;2022-10-16T06:51:18;6.32;;;3.67;;
60472;SDS011;46318;52.716;6.444;2022-10-16T06:53:50;4.70;;;3.20;;
60472;SDS011;46318;52.716;6.444;2022-10-16T06:56:19;6.38;;;3.42;;
60472;SDS011;46318;52.716;6.444;2022-10-16T06:58:50;3.58;;;2.78;;
60472;SDS011;46318;52.716;6.444;2022-10-16T07:01:18;4.00;;;2.97;;
60472;SDS011;46318;52.716;6.444;2022-10-16T07:03:46;4.50;;;2.78;;
60472;SDS011;46318;52.716;6.444;2022-10-16T07:06:13;3.47;;;3.10;;
60472;SDS011;46318;52.716;6.444;2022-10-16T07:08:42;3.40;;;2.97;;
60472;SDS011;46318;52.716;6.444;2022-10-16T07:11:11;3.95;;;2.78;;
60472;SDS011;46318;52.716;6.444;2022-10-16T07:13:40;5.07;;;3.33;;
60472;SDS011;46318;52.716;6.444;2022-10-16T07:16:14;5.78;;;3.08;;
60472;SDS011;46318;52.716;6.444;2022-10-16T07:18:42;5.22;;;3.17;;
60472;SDS011;46318;52.716;6.444;2022-10-16T07:21:17;5.97;;;3.22;;
60472;SDS011;46318;52.716;6.444;2022-10-16T07:23:45;7.97;;;3.10;;
60472;SDS011;46318;52.716;6.444;2022-10-16T07:26:15;6.07;;;2.85;;
60472;SDS011;46318;52.716;6.444;2022-10-16T07:28:42;3.30;;;2.75;;
60472;SDS011;46318;52.716;6.444;2022-10-16T07:31:10;6.15;;;2.60;;
60472;SDS011;46318;52.716;6.444;2022-10-16T07:33:39;3.85;;;2.60;;
60472;SDS011;46318;52.716;6.444;2022-10-16T07:38:36;5.55;;;2.60;;
60472;SDS011;46318;52.716;6.444;2022-10-16T07:41:04;5.75;;;2.60;;
60472;SDS011;46318;52.716;6.444;2022-10-16T07:43:32;4.90;;;2.42;;
60472;SDS011;46318;52.716;6.444;2022-10-16T07:45:59;4.60;;;2.45;;
60472;SDS011;46318;52.716;6.444;2022-10-16T07:48:30;5.03;;;2.13;;
60472;SDS011;46318;52.716;6.444;2022-10-16T07:50:58;7.13;;;2.05;;
60472;SDS011;46318;52.716;6.444;2022-10-16T07:53:28;3.42;;;1.60;;
60472;SDS011;46318;52.716;6.444;2022-10-16T07:55:58;3.88;;;1.75;;
60472;SDS011;46318;52.716;6.444;2022-10-16T07:58:29;3.33;;;1.40;;
60472;SDS011;46318;52.716;6.444;2022-10-16T08:00:56;4.30;;;1.60;;
60472;SDS011;46318;52.716;6.444;2022-10-16T08:03:22;3.42;;;1.60;;
60472;SDS011;46318;52.716;6.444;2022-10-16T08:05:49;4.07;;;1.63;;
60472;SDS011;46318;52.716;6.444;2022-10-16T08:08:15;3.75;;;1.70;;
60472;SDS011;46318;52.716;6.444;2022-10-16T08:10:42;2.85;;;1.98;;
60472;SDS011;46318;52.716;6.444;2022-10-16T08:13:09;4.18;;;1.63;;
60472;SDS011;46318;52.716;6.444;2022-10-16T08:15:35;4.63;;;2.22;;
60472;SDS011;46318;52.716;6.444;2022-10-16T08:18:02;2.92;;;2.50;;
60472;SDS011;46318;52.716;6.444;2022-10-16T08:20:30;7.30;;;2.75;;
60472;SDS011;46318;52.716;6.444;2022-10-16T08:22:57;6.90;;;2.60;;
60472;SDS011;46318;52.716;6.444;2022-10-16T08:25:24;4.10;;;2.75;;
60472;SDS011;46318;52.716;6.444;2022-10-16T08:27:50;6.72;;;3.35;;
60472;SDS011;46318;52.716;6.444;2022-10-16T08:30:20;8.40;;;3.67;;
60472;SDS011;46318;52.716;6.444;2022-10-16T08:32:48;4.82;;;3.63;;
60472;SDS011;46318;52.716;6.444;2022-10-16T08:35:15;9.50;;;4.25;;
60472;SDS011;46318;52.716;6.444;2022-10-16T08:37:43;8.98;;;4.50;;
60472;SDS011;46318;52.716;6.444;2022-10-16T08:40:16;4.82;;;3.25;;
60472;SDS011;46318;52.716;6.444;2022-10-16T08:43:17;5.75;;;3.40;;
60472;SDS011;46318;52.716;6.444;2022-10-16T08:48:40;10.02;;;3.35;;
60472;SDS011;46318;52.716;6.444;2022-10-16T08:51:13;4.60;;;2.80;;
60472;SDS011;46318;52.716;6.444;2022-10-16T08:54:01;3.53;;;2.60;;
60472;SDS011;46318;52.716;6.444;2022-10-16T08:56:30;4.25;;;2.65;;
60472;SDS011;46318;52.716;6.444;2022-10-16T08:58:58;4.82;;;2.50;;
60472;SDS011;46318;52.716;6.444;2022-10-16T09:01:25;6.15;;;2.80;;
60472;SDS011;46318;52.716;6.444;2022-10-16T09:07:12;5.47;;;2.53;;
60472;SDS011;46318;52.716;6.444;2022-10-16T09:17:55;5.15;;;2.03;;
60472;SDS011;46318;52.716;6.444;2022-10-16T09:20:28;5.53;;;2.28;;
60472;SDS011;46318;52.716;6.444;2022-10-16T09:25:54;6.20;;;2.30;;
60472;SDS011;46318;52.716;6.444;2022-10-16T09:28:23;8.45;;;2.67;;
60472;SDS011;46318;52.716;6.444;2022-10-16T09:30:49;7.25;;;2.10;;
60472;SDS011;46318;52.716;6.444;2022-10-16T09:33:17;6.28;;;2.92;;
60472;SDS011;46318;52.716;6.444;2022-10-16T09:35:50;5.47;;;2.35;;
60472;SDS011;46318;52.716;6.444;2022-10-16T09:41:00;4.80;;;2.88;;
60472;SDS011;46318;52.716;6.444;2022-10-16T09:43:33;7.78;;;2.30;;
60472;SDS011;46318;52.716;6.444;2022-10-16T09:46:21;5.40;;;1.90;;
60472;SDS011;46318;52.716;6.444;2022-10-16T09:49:04;5.38;;;2.08;;
60472;SDS011;46318;52.716;6.444;2022-10-16T09:51:48;8.95;;;2.17;;
60472;SDS011;46318;52.716;6.444;2022-10-16T09:54:18;8.55;;;2.35;;
60472;SDS011;46318;52.716;6.444;2022-10-16T09:56:45;8.40;;;1.73;;
60472;SDS011;46318;52.716;6.444;2022-10-16T09:59:20;7.53;;;1.73;;
60472;SDS011;46318;52.716;6.444;2022-10-16T10:01:52;9.02;;;2.25;;
60472;SDS011;46318;52.716;6.444;2022-10-16T10:04:20;8.63;;;1.90;;
60472;SDS011;46318;52.716;6.444;2022-10-16T10:06:51;12.90;;;2.17;;
60472;SDS011;46318;52.716;6.444;2022-10-16T10:09:25;4.90;;;2.08;;
60472;SDS011;46318;52.716;6.444;2022-10-16T10:11:56;8.18;;;2.03;;
60472;SDS011;46318;52.716;6.444;2022-10-16T10:19:40;6.88;;;1.67;;
60472;SDS011;46318;52.716;6.444;2022-10-16T10:22:24;7.80;;;2.20;;
60472;SDS011;46318;52.716;6.444;2022-10-16T10:24:58;7.97;;;2.40;;
60472;SDS011;46318;52.716;6.444;2022-10-16T10:27:39;8.98;;;2.08;;
60472;SDS011;46318;52.716;6.444;2022-10-16T10:36:25;9.77;;;2.25;;
60472;SDS011;46318;52.716;6.444;2022-10-16T10:50:42;7.72;;;2.28;;
60472;SDS011;46318;52.716;6.444;2022-10-16T10:53:32;10.75;;;2.25;;
60472;SDS011;46318;52.716;6.444;2022-10-16T11:00:08;10.80;;;3.67;;
60472;SDS011;46318;52.716;6.444;2022-10-16T11:05:27;5.85;;;2.00;;
60472;SDS011;46318;52.716;6.444;2022-10-16T11:08:13;7.60;;;1.95;;
60472;SDS011;46318;52.716;6.444;2022-10-16T11:10:49;9.68;;;2.13;;
60472;SDS011;46318;52.716;6.444;2022-10-16T11:19:42;9.98;;;2.67;;
60472;SDS011;46318;52.716;6.444;2022-10-16T11:22:32;8.40;;;2.17;;
60472;SDS011;46318;52.716;6.444;2022-10-16T11:33:32;9.43;;;2.15;;
60472;SDS011;46318;52.716;6.444;2022-10-16T11:38:54;10.50;;;2.70;;
60472;SDS011;46318;52.716;6.444;2022-10-16T11:44:34;6.22;;;2.25;;
60472;SDS011;46318;52.716;6.444;2022-10-16T11:47:28;7.05;;;1.80;;
60472;SDS011;46318;52.716;6.444;2022-10-16T11:56:08;5.97;;;1.90;;
60472;SDS011;46318;52.716;6.444;2022-10-16T12:09:32;6.75;;;2.50;;
60472;SDS011;46318;52.716;6.444;2022-10-16T12:12:04;12.18;;;3.35;;
60472;SDS011;46318;52.716;6.444;2022-10-16T12:14:47;6.10;;;2.20;;
60472;SDS011;46318;52.716;6.444;2022-10-16T12:19:45;10.73;;;3.60;;
60472;SDS011;46318;52.716;6.444;2022-10-16T12:22:40;7.35;;;1.90;;
60472;SDS011;46318;52.716;6.444;2022-10-16T12:25:24;6.65;;;2.22;;
60472;SDS011;46318;52.716;6.444;2022-10-16T12:28:00;9.95;;;2.90;;
60472;SDS011;46318;52.716;6.444;2022-10-16T12:30:53;13.43;;;2.63;;
60472;SDS011;46318;52.716;6.444;2022-10-16T12:33:25;7.63;;;2.00;;
60472;SDS011;46318;52.716;6.444;2022-10-16T12:35:54;9.95;;;2.03;;
60472;SDS011;46318;52.716;6.444;2022-10-16T12:38:25;10.93;;;2.45;;
60472;SDS011;46318;52.716;6.444;2022-10-16T12:41:04;5.82;;;1.92;;
60472;SDS011;46318;52.716;6.444;2022-10-16T12:43:40;9.75;;;2.53;;
60472;SDS011;46318;52.716;6.444;2022-10-16T12:48:34;8.57;;;2.47;;
60472;SDS011;46318;52.716;6.444;2022-10-16T12:54:03;8.45;;;2.05;;
60472;SDS011;46318;52.716;6.444;2022-10-16T12:59:15;9.30;;;2.38;;
60472;SDS011;46318;52.716;6.444;2022-10-16T13:02:21;7.72;;;2.13;;
60472;SDS011;46318;52.716;6.444;2022-10-16T13:07:56;8.30;;;2.35;;
60472;SDS011;46318;52.716;6.444;2022-10-16T13:10:51;8.07;;;1.88;;
60472;SDS011;46318;52.716;6.444;2022-10-16T13:13:53;6.32;;;1.85;;
60472;SDS011;46318;52.716;6.444;2022-10-16T13:20:21;9.70;;;2.35;;
60472;SDS011;46318;52.716;6.444;2022-10-16T13:28:08;6.65;;;2.10;;
60472;SDS011;46318;52.716;6.444;2022-10-16T13:35:50;8.80;;;1.90;;
60472;SDS011;46318;52.716;6.444;2022-10-16T13:38:22;8.13;;;2.30;;
60472;SDS011;46318;52.716;6.444;2022-10-16T13:41:13;5.18;;;1.90;;
60472;SDS011;46318;52.716;6.444;2022-10-16T13:46:18;6.20;;;2.13;;
60472;SDS011;46318;52.716;6.444;2022-10-16T13:51:57;5.93;;;2.20;;
60472;SDS011;46318;52.716;6.444;2022-10-16T13:54:25;6.40;;;2.25;;
60472;SDS011;46318;52.716;6.444;2022-10-16T13:56:53;6.43;;;2.92;;
60472;SDS011;46318;52.716;6.444;2022-10-16T13:59:26;9.88;;;3.63;;
60472;SDS011;46318;52.716;6.444;2022-10-16T14:01:59;13.25;;;3.67;;
60472;SDS011;46318;52.716;6.444;2022-10-16T14:04:34;5.85;;;1.83;;
60472;SDS011;46318;52.716;6.444;2022-10-16T14:07:04;9.48;;;1.98;;
60472;SDS011;46318;52.716;6.444;2022-10-16T14:09:30;8.27;;;2.15;;
60472;SDS011;46318;52.716;6.444;2022-10-16T14:11:58;5.97;;;2.00;;
60472;SDS011;46318;52.716;6.444;2022-10-16T14:14:44;7.78;;;3.17;;
60472;SDS011;46318;52.716;6.444;2022-10-16T14:17:13;10.23;;;5.28;;
60472;SDS011;46318;52.716;6.444;2022-10-16T14:19:48;8.93;;;3.67;;
60472;SDS011;46318;52.716;6.444;2022-10-16T14:22:30;8.25;;;3.00;;
60472;SDS011;46318;52.716;6.444;2022-10-16T14:25:01;6.70;;;2.78;;
60472;SDS011;46318;52.716;6.444;2022-10-16T14:28:13;8.20;;;2.70;;
60472;SDS011;46318;52.716;6.444;2022-10-16T14:30:51;5.72;;;2.28;;
60472;SDS011;46318;52.716;6.444;2022-10-16T14:33:23;6.10;;;2.13;;
60472;SDS011;46318;52.716;6.444;2022-10-16T14:36:00;6.22;;;2.17;;
60472;SDS011;46318;52.716;6.444;2022-10-16T14:38:26;9.10;;;2.00;;
60472;SDS011;46318;52.716;6.444;2022-10-16T14:40:52;7.18;;;2.42;;
60472;SDS011;46318;52.716;6.444;2022-10-16T14:43:21;5.55;;;2.50;;
60472;SDS011;46318;52.716;6.444;2022-10-16T14:46:01;9.80;;;2.88;;
60472;SDS011;46318;52.716;6.444;2022-10-16T14:48:29;8.45;;;3.42;;
60472;SDS011;46318;52.716;6.444;2022-10-16T14:50:55;8.65;;;4.10;;
60472;SDS011;46318;52.716;6.444;2022-10-16T14:53:21;11.48;;;5.47;;
60472;SDS011;46318;52.716;6.444;2022-10-16T14:55:47;9.15;;;3.47;;
60472;SDS011;46318;52.716;6.444;2022-10-16T14:58:17;8.30;;;3.15;;
60472;SDS011;46318;52.716;6.444;2022-10-16T15:00:46;5.65;;;2.00;;
60472;SDS011;46318;52.716;6.444;2022-10-16T15:03:12;9.80;;;2.03;;
60472;SDS011;46318;52.716;6.444;2022-10-16T15:05:38;5.53;;;2.05;;
60472;SDS011;46318;52.716;6.444;2022-10-16T15:08:04;6.70;;;2.10;;
60472;SDS011;46318;52.716;6.444;2022-10-16T15:10:30;7.20;;;3.53;;
60472;SDS011;46318;52.716;6.444;2022-10-16T15:12:58;8.65;;;2.70;;
60472;SDS011;46318;52.716;6.444;2022-10-16T15:18:04;10.15;;;2.50;;
60472;SDS011;46318;52.716;6.444;2022-10-16T15:20:31;6.80;;;2.38;;
60472;SDS011;46318;52.716;6.444;2022-10-16T15:23:00;7.95;;;3.33;;
60472;SDS011;46318;52.716;6.444;2022-10-16T15:25:46;9.95;;;3.08;;
60472;SDS011;46318;52.716;6.444;2022-10-16T15:28:15;6.57;;;2.85;;
60472;SDS011;46318;52.716;6.444;2022-10-16T15:30:42;6.63;;;2.50;;
60472;SDS011;46318;52.716;6.444;2022-10-16T15:33:14;6.10;;;2.05;;
60472;SDS011;46318;52.716;6.444;2022-10-16T15:35:54;6.95;;;2.40;;
60472;SDS011;46318;52.716;6.444;2022-10-16T15:38:20;7.25;;;2.20;;
60472;SDS011;46318;52.716;6.444;2022-10-16T15:40:50;7.28;;;2.10;;
60472;SDS011;46318;52.716;6.444;2022-10-16T15:43:16;9.77;;;2.55;;
60472;SDS011;46318;52.716;6.444;2022-10-16T15:45:41;9.18;;;2.42;;
60472;SDS011;46318;52.716;6.444;2022-10-16T15:48:11;10.95;;;2.50;;
60472;SDS011;46318;52.716;6.444;2022-10-16T15:50:38;9.68;;;3.72;;
60472;SDS011;46318;52.716;6.444;2022-10-16T15:53:05;9.85;;;4.70;;
60472;SDS011;46318;52.716;6.444;2022-10-16T15:55:31;7.82;;;4.78;;
60472;SDS011;46318;52.716;6.444;2022-10-16T15:57:57;8.68;;;3.88;;
60472;SDS011;46318;52.716;6.444;2022-10-16T16:00:22;10.60;;;3.35;;
60472;SDS011;46318;52.716;6.444;2022-10-16T16:02:53;8.10;;;2.75;;
60472;SDS011;46318;52.716;6.444;2022-10-16T16:05:20;10.02;;;2.45;;
60472;SDS011;46318;52.716;6.444;2022-10-16T16:07:47;8.52;;;2.97;;
60472;SDS011;46318;52.716;6.444;2022-10-16T16:10:13;8.55;;;3.42;;
60472;SDS011;46318;52.716;6.444;2022-10-16T16:12:40;6.78;;;3.25;;
60472;SDS011;46318;52.716;6.444;2022-10-16T16:15:06;8.52;;;2.53;;
60472;SDS011;46318;52.716;6.444;2022-10-16T16:17:34;9.40;;;2.85;;
60472;SDS011;46318;52.716;6.444;2022-10-16T16:20:01;5.32;;;3.10;;
60472;SDS011;46318;52.716;6.444;2022-10-16T16:22:29;5.30;;;2.45;;
60472;SDS011;46318;52.716;6.444;2022-10-16T16:24:54;11.55;;;3.50;;
60472;SDS011;46318;52.716;6.444;2022-10-16T16:27:20;6.43;;;3.38;;
60472;SDS011;46318;52.716;6.444;2022-10-16T16:29:46;9.15;;;3.28;;
60472;SDS011;46318;52.716;6.444;2022-10-16T16:32:12;9.43;;;3.38;;
60472;SDS011;46318;52.716;6.444;2022-10-16T16:34:38;12.52;;;4.32;;
60472;SDS011;46318;52.716;6.444;2022-10-16T16:37:04;6.57;;;3.92;;
60472;SDS011;46318;52.716;6.444;2022-10-16T16:39:30;8.95;;;3.20;;
60472;SDS011;46318;52.716;6.444;2022-10-16T16:41:56;9.60;;;3.42;;
60472;SDS011;46318;52.716;6.444;2022-10-16T16:44:26;7.65;;;3.30;;
60472;SDS011;46318;52.716;6.444;2022-10-16T16:46:51;12.85;;;4.20;;
60472;SDS011;46318;52.716;6.444;2022-10-16T16:49:17;10.13;;;4.10;;
60472;SDS011;46318;52.716;6.444;2022-10-16T16:51:43;8.32;;;3.95;;
60472;SDS011;46318;52.716;6.444;2022-10-16T16:54:09;9.30;;;3.65;;
60472;SDS011;46318;52.716;6.444;2022-10-16T16:56:37;9.18;;;4.00;;
60472;SDS011;46318;52.716;6.444;2022-10-16T16:59:04;11.60;;;4.07;;
60472;SDS011;46318;52.716;6.444;2022-10-16T17:01:30;12.02;;;4.78;;
60472;SDS011;46318;52.716;6.444;2022-10-16T17:03:56;9.23;;;4.75;;
60472;SDS011;46318;52.716;6.444;2022-10-16T17:06:26;8.77;;;4.95;;
60472;SDS011;46318;52.716;6.444;2022-10-16T17:08:54;10.07;;;4.85;;
60472;SDS011;46318;52.716;6.444;2022-10-16T17:11:22;13.82;;;5.25;;
60472;SDS011;46318;52.716;6.444;2022-10-16T17:13:51;10.82;;;5.03;;
60472;SDS011;46318;52.716;6.444;2022-10-16T17:16:19;8.57;;;4.75;;
60472;SDS011;46318;52.716;6.444;2022-10-16T17:18:46;10.68;;;5.10;;
60472;SDS011;46318;52.716;6.444;2022-10-16T17:21:12;12.90;;;5.47;;
60472;SDS011;46318;52.716;6.444;2022-10-16T17:23:38;10.50;;;4.30;;
60472;SDS011;46318;52.716;6.444;2022-10-16T17:28:37;19.23;;;14.20;;
60472;SDS011;46318;52.716;6.444;2022-10-16T17:33:33;16.10;;;8.82;;